createdAt,value
2022-10-18T00:06:26.507Z,99388.88
2022-10-18T00:13:08.931Z,99392.94
2022-10-18T00:19:32.082Z,99394.96
2022-10-18T00:25:56.578Z,99393.31
2022-10-18T00:32:40.515Z,99393.64
2022-10-18T00:39:23.213Z,99385.95
2022-10-18T00:46:12.495Z,99378.41
2022-10-18T00:53:04.436Z,99374.23
2022-10-18T00:59:47.541Z,99371.75
2022-10-18T01:06:30.373Z,99372.23
2022-10-18T01:13:22.080Z,99366.59
2022-10-18T01:20:15.827Z,99368.11
2022-10-18T01:27:01.613Z,99367.64
2022-10-18T01:40:34.192Z,99352.77
2022-10-18T01:47:16.913Z,99350.04
2022-10-18T01:54:03.167Z,99351.05
2022-10-18T02:00:55.138Z,99348.96
2022-10-18T02:07:38.163Z,99344.19
2022-10-18T02:14:21.099Z,99339.98
2022-10-18T02:21:05.257Z,99340.45
2022-10-18T02:27:47.805Z,99333.04
2022-10-18T02:34:31.329Z,99318.74
2022-10-18T02:41:15.511Z,99325.05
2022-10-18T02:47:58.549Z,99320.09
2022-10-18T02:54:41.953Z,99314.05
2022-10-18T03:01:27.508Z,99301.23
2022-10-18T03:08:10.675Z,99306.22
2022-10-18T03:14:53.556Z,99308.62
2022-10-18T03:21:36.396Z,99300.93
2022-10-18T03:28:19.362Z,99306.53
2022-10-18T03:35:02.593Z,99314.15
2022-10-18T03:41:45.719Z,99315.35
2022-10-18T03:48:28.927Z,99311.52
2022-10-18T03:55:11.999Z,99317.19
2022-10-18T04:01:55.182Z,99321.41
2022-10-18T04:08:38.218Z,99326.13
2022-10-18T04:15:24.196Z,99328.67
2022-10-18T04:22:07.581Z,99326.73
2022-10-18T04:28:57.292Z,99332.41
2022-10-18T04:35:40.278Z,99331.39
2022-10-18T04:42:23.379Z,99333.77
2022-10-18T04:49:12.027Z,99322.88
2022-10-18T04:55:58.886Z,99328.67
2022-10-18T05:02:44.306Z,99322.02
2022-10-18T05:09:29.014Z,99314.56
2022-10-18T05:16:21.897Z,99313.10
2022-10-18T05:23:11.194Z,99321.30
2022-10-18T05:30:05.897Z,99319.35
2022-10-18T05:36:57.785Z,99323.59
2022-10-18T05:43:41.885Z,99321.92
2022-10-18T05:49:13.864Z,99321.21
2022-10-18T05:54:44.316Z,99321.58
2022-10-18T06:00:10.490Z,99324.22
2022-10-18T06:11:08.623Z,99328.52
2022-10-18T06:16:52.712Z,99324.82
2022-10-18T06:22:46.794Z,99315.55
2022-10-18T06:28:13.923Z,99314.83
2022-10-18T06:33:37.298Z,99314.44
2022-10-18T06:39:02.304Z,99315.23
2022-10-18T06:44:24.859Z,99320.45
2022-10-18T06:50:12.485Z,99320.25
2022-10-18T06:56:39.608Z,99318.90
2022-10-18T07:03:22.538Z,99317.66
2022-10-18T07:10:05.484Z,99315.70
2022-10-18T07:16:49.953Z,99318.05
2022-10-18T07:23:32.520Z,99317.31
2022-10-18T07:30:15.355Z,99321.34
2022-10-18T07:36:57.174Z,99320.05
2022-10-18T07:43:39.707Z,99314.77
2022-10-18T07:50:22.378Z,99314.52
2022-10-18T07:56:47.587Z,99309.51
2022-10-18T08:03:30.455Z,99301.95
2022-10-18T08:10:15.458Z,99294.09
2022-10-18T08:17:03.945Z,99291.02
2022-10-18T08:23:48.075Z,99289.31
2022-10-18T08:30:31.240Z,99281.77
2022-10-18T08:37:13.459Z,99267.80
2022-10-18T08:44:14.431Z,99267.11
2022-10-18T08:50:32.291Z,99262.42
2022-10-18T08:57:15.197Z,99255.64
2022-10-18T09:04:15.264Z,99247.64
2022-10-18T09:10:29.967Z,99240.11
2022-10-18T09:17:03.537Z,99239.00
2022-10-18T09:23:53.376Z,99231.57
2022-10-18T09:29:59.482Z,99225.60
2022-10-18T09:36:53.554Z,99228.91
2022-10-18T09:43:40.707Z,99217.09
2022-10-18T09:57:37.859Z,99207.38
2022-10-18T12:28:10.018Z,98979.20
2022-10-18T12:35:08.357Z,98971.48
2022-10-18T12:54:52.908Z,98947.84
2022-10-18T13:01:39.589Z,98940.77
2022-10-18T13:08:25.408Z,98934.27
2022-10-18T13:15:24.214Z,98929.65
2022-10-18T13:21:37.839Z,98926.48
2022-10-18T13:27:56.543Z,98921.46
2022-10-18T13:33:38.719Z,98916.21
2022-10-18T13:39:02.620Z,98909.39
2022-10-18T13:45:29.903Z,98902.52
2022-10-18T13:52:16.472Z,98891.75
2022-10-18T13:58:31.268Z,98902.86
2022-10-18T14:05:24.756Z,98898.40
2022-10-18T14:12:08.248Z,98893.16
2022-10-18T14:18:42.214Z,98886.95
2022-10-18T14:24:50.967Z,98885.34
2022-10-18T14:31:34.806Z,98877.52
2022-10-18T14:37:51.270Z,98873.06
2022-10-18T14:43:56.323Z,98863.11
2022-10-18T14:50:06.066Z,98851.55
2022-10-18T14:57:01.793Z,98847.63
2022-10-18T15:03:23.855Z,98833.08
2022-10-18T15:09:45.510Z,98832.84
2022-10-18T15:15:47.192Z,98837.10
2022-10-18T15:29:13.233Z,98818.89
2022-10-18T15:36:01.227Z,98804.52
2022-10-18T15:42:42.951Z,98807.42
2022-10-18T15:49:25.677Z,98810.16
2022-10-18T15:56:23.033Z,98812.55
2022-10-18T16:03:05.475Z,98810.92
2022-10-18T16:09:51.867Z,98818.96
2022-10-18T16:16:33.815Z,98825.08
2022-10-18T16:23:15.484Z,98826.05
2022-10-18T16:30:00.032Z,98829.71
2022-10-18T16:36:46.144Z,98841.60
2022-10-18T16:43:32.715Z,98845.90
2022-10-18T16:50:16.378Z,98847.39
2022-10-18T16:56:39.255Z,98847.09
2022-10-18T17:02:31.901Z,98853.45
2022-10-18T17:08:36.872Z,98853.60
2022-10-18T17:15:09.993Z,98861.73
2022-10-18T17:20:52.873Z,98878.48
2022-10-18T17:26:34.294Z,98882.02
2022-10-18T17:31:55.600Z,98892.77
2022-10-18T17:38:16.930Z,98898.05
2022-10-18T17:44:14.589Z,98897.28
2022-10-18T17:50:36.560Z,98905.32
2022-10-18T17:56:20.217Z,98898.98
2022-10-18T18:01:50.657Z,98901.06
2022-10-18T18:07:20.948Z,98896.48
2022-10-18T18:13:42.738Z,98899.66
2022-10-18T18:20:25.298Z,98899.33
2022-10-18T18:27:07.619Z,98903.80
2022-10-18T18:33:49.264Z,98910.94
2022-10-18T18:40:18.273Z,98916.63
2022-10-18T18:45:59.748Z,98927.15
2022-10-18T18:51:23.071Z,98940.27
2022-10-18T18:56:43.916Z,98958.36
2022-10-18T19:02:06.251Z,98961.28
2022-10-18T19:07:28.712Z,98971.56
2022-10-18T19:12:50.539Z,98986.14
2022-10-18T19:18:23.180Z,98979.67
2022-10-18T19:23:50.323Z,98976.83
2022-10-18T19:29:18.428Z,98976.92
2022-10-18T19:34:43.620Z,98975.85
2022-10-18T19:40:26.234Z,99001.15
2022-10-18T19:45:52.380Z,99011.14
2022-10-18T19:51:34.072Z,99016.63
2022-10-18T19:57:05.059Z,99025.09
2022-10-18T20:02:35.894Z,99041.36
2022-10-18T20:07:59.812Z,99048.15
2022-10-18T20:13:42.685Z,99047.82
2022-10-18T20:19:07.771Z,99064.77
2022-10-18T20:24:29.505Z,99072.40
2022-10-18T20:30:37.333Z,99082.54
2022-10-18T20:36:11.669Z,99080.14
2022-10-18T20:41:34.625Z,99080.69
2022-10-18T20:46:58.644Z,99083.07
2022-10-18T20:53:55.507Z,99092.79
2022-10-18T21:00:40.141Z,99094.80
2022-10-18T21:07:23.922Z,99093.41
2022-10-18T21:14:09.321Z,99092.98
2022-10-18T21:20:55.775Z,99091.13
2022-10-18T21:27:39.987Z,99082.05
2022-10-18T21:34:23.176Z,99075.95
2022-10-18T21:41:06.204Z,99070.64
2022-10-18T21:47:49.749Z,99058.51
2022-10-18T21:54:34.882Z,99052.88
2022-10-18T22:01:18.859Z,99053.39
2022-10-18T22:08:01.762Z,99056.60
2022-10-18T22:14:45.749Z,99053.85
2022-10-18T22:21:34.649Z,99056.28
2022-10-18T22:28:18.205Z,99061.92
2022-10-18T22:35:06.782Z,99063.04
2022-10-18T22:41:59.977Z,99052.08
2022-10-18T22:47:38.527Z,99055.63
2022-10-18T22:53:13.375Z,99054.16
2022-10-18T22:58:49.566Z,99046.66
2022-10-18T23:04:37.514Z,99045.83
2022-10-18T23:15:40.451Z,99064.01
2022-10-18T23:21:22.412Z,99063.09
2022-10-18T23:27:30.699Z,99061.70
2022-10-18T23:32:59.570Z,99051.70
2022-10-18T23:38:50.752Z,99049.94
2022-10-18T23:44:25.001Z,99054.48
2022-10-18T23:50:30.675Z,99058.34
